Time;durP1;ratioP1;P1;durP2;ratioP2;P2;SDS_P1;SDS_P2;PMS_P1;PMS_P2;Temp;Humidity;BMP_temperature;BMP_pressure;BME280_temperature;BME280_humidity;BME280_pressure;Samples;Min_cycle;Max_cycle;Signal;HPM_P1;HPM_P2
2022/10/21 00:01:10;;;;;;;1.00;0.90;;;19.50;59.20;;;;;;4982035;28;20043;-67
2022/10/21 00:03:36;;;;;;;0.80;0.80;;;19.50;59.20;;;;;;4967085;29;20023;-67
2022/10/21 00:06:03;;;;;;;1.15;0.90;;;19.50;59.20;;;;;;4967020;29;20066;-67
2022/10/21 00:08:29;;;;;;;1.13;1.02;;;19.50;59.10;;;;;;4966990;29;20358;-68
2022/10/21 00:10:58;;;;;;;1.40;0.85;;;19.50;59.10;;;;;;4966977;28;20031;-68
2022/10/21 00:13:25;;;;;;;1.20;0.90;;;19.50;59.20;;;;;;4966908;29;20023;-67
2022/10/21 00:16:12;;;;;;;0.68;0.68;;;19.50;59.20;;;;;;4966856;29;20311;-67
2022/10/21 00:18:41;;;;;;;1.17;1.08;;;19.50;59.20;;;;;;4966813;29;20024;-67
2022/10/21 00:21:13;;;;;;;1.33;1.10;;;19.50;59.10;;;;;;4966666;29;20303;-67
2022/10/21 00:23:39;;;;;;;1.20;0.90;;;19.50;59.20;;;;;;4966728;29;20184;-67
2022/10/21 00:26:05;;;;;;;1.90;1.00;;;19.50;59.20;;;;;;4966678;28;20082;-67
2022/10/21 00:28:31;;;;;;;1.33;1.20;;;19.50;59.20;;;;;;4966625;29;20019;-68
2022/10/21 00:30:57;;;;;;;1.08;0.88;;;19.50;59.20;;;;;;4966568;29;20307;-68
2022/10/21 00:33:24;;;;;;;0.88;0.88;;;19.50;59.20;;;;;;4966546;29;20023;-67
2022/10/21 00:35:52;;;;;;;0.93;0.93;;;19.40;59.80;;;;;;4965878;28;20023;-68
2022/10/21 00:38:18;;;;;;;1.30;0.90;;;19.50;59.30;;;;;;4966344;29;20110;-68
2022/10/21 00:40:43;;;;;;;1.27;1.17;;;19.50;59.30;;;;;;4966296;29;20027;-67
2022/10/21 00:43:11;;;;;;;0.93;0.82;;;19.40;59.20;;;;;;4966357;29;20019;-68
2022/10/21 00:45:37;;;;;;;0.80;0.80;;;19.40;59.20;;;;;;4966323;29;20026;-67
2022/10/21 00:48:08;;;;;;;0.88;0.80;;;19.40;59.20;;;;;;4966224;29;20016;-67
2022/10/21 00:50:42;;;;;;;1.25;1.05;;;19.40;59.20;;;;;;4966267;28;20019;-68
2022/10/21 00:53:12;;;;;;;1.42;1.00;;;19.50;59.20;;;;;;4966240;28;20023;-68
2022/10/21 00:55:45;;;;;;;1.27;1.17;;;19.40;59.20;;;;;;4966178;28;20096;-68
2022/10/21 00:58:11;;;;;;;1.65;1.00;;;19.40;59.30;;;;;;4966084;29;20022;-67
2022/10/21 01:00:37;;;;;;;1.08;0.90;;;19.40;59.30;;;;;;4965991;29;20034;-67
2022/10/21 01:03:03;;;;;;;1.00;0.90;;;19.40;59.30;;;;;;4965986;29;20019;-68
2022/10/21 01:05:30;;;;;;;0.80;0.80;;;19.40;59.30;;;;;;4965975;28;20049;-67
2022/10/21 01:07:59;;;;;;;1.15;1.00;;;19.40;59.40;;;;;;4965912;28;20296;-68
2022/10/21 01:10:25;;;;;;;0.98;0.80;;;19.40;59.30;;;;;;4965904;28;20042;-67
2022/10/21 01:13:00;;;;;;;0.80;0.80;;;19.40;59.40;;;;;;4965831;29;20074;-67
2022/10/21 01:16:20;;;;;;;1.10;1.00;;;19.40;59.30;;;;;;4965820;29;20016;-68
2022/10/21 01:19:01;;;;;;;1.27;1.17;;;19.30;59.30;;;;;;4975000;28;20078;-67
2022/10/21 01:21:33;;;;;;;0.93;0.73;;;19.30;59.20;;;;;;4965683;29;20086;-68
2022/10/21 01:24:13;;;;;;;1.08;0.95;;;19.30;59.20;;;;;;4965630;29;20026;-67
2022/10/21 01:27:10;;;;;;;1.05;0.95;;;19.30;59.20;;;;;;4965688;29;20023;-68
2022/10/21 01:30:10;;;;;;;1.00;0.95;;;19.30;59.20;;;;;;4965618;29;20023;-68
2022/10/21 01:32:36;;;;;;;1.50;0.93;;;19.30;59.40;;;;;;4965562;29;20027;-67
2022/10/21 01:35:14;;;;;;;1.00;0.90;;;19.30;59.40;;;;;;4965539;29;20062;-68
2022/10/21 01:37:51;;;;;;;1.50;1.40;;;19.30;59.30;;;;;;4965346;29;20130;-67
2022/10/21 01:40:23;;;;;;;0.82;0.82;;;19.30;59.30;;;;;;4965466;28;20319;-67
2022/10/21 01:42:57;;;;;;;1.00;0.90;;;19.30;59.40;;;;;;4965464;29;20064;-67
2022/10/21 01:45:22;;;;;;;0.95;0.80;;;19.30;59.50;;;;;;4965403;28;20026;-68
2022/10/21 01:48:03;;;;;;;0.70;0.70;;;19.30;59.40;;;;;;4965345;28;20015;-67
2022/10/21 01:50:33;;;;;;;1.85;1.35;;;19.30;59.40;;;;;;4965368;28;20042;-67
2022/10/21 01:53:05;;;;;;;1.13;0.95;;;19.30;59.30;;;;;;4965362;29;20058;-67
2022/10/21 01:55:32;;;;;;;1.02;0.88;;;19.30;59.30;;;;;;4965324;28;20034;-68
2022/10/21 01:58:16;;;;;;;0.80;0.80;;;19.30;59.20;;;;;;4964137;29;20266;-68
2022/10/21 02:00:43;;;;;;;1.38;1.10;;;19.30;59.50;;;;;;4965163;29;20030;-67
2022/10/21 02:03:14;;;;;;;1.02;0.88;;;19.20;59.40;;;;;;4965209;29;20019;-68
2022/10/21 02:05:40;;;;;;;1.27;1.17;;;19.30;59.40;;;;;;4965243;29;20203;-68
2022/10/21 02:08:06;;;;;;;0.88;0.80;;;19.20;59.40;;;;;;4965142;29;20019;-67
2022/10/21 02:10:42;;;;;;;1.00;0.90;;;19.30;59.30;;;;;;4965124;29;20087;-68
2022/10/21 02:13:10;;;;;;;1.25;1.00;;;19.30;59.40;;;;;;4965167;29;20023;-68
2022/10/21 02:15:38;;;;;;;0.90;0.90;;;19.30;59.20;;;;;;4965112;29;20035;-67
2022/10/21 02:18:17;;;;;;;1.50;0.90;;;19.30;59.20;;;;;;4965046;29;20024;-67
2022/10/21 02:20:44;;;;;;;2.25;0.85;;;19.30;59.20;;;;;;4964971;29;20243;-67
2022/10/21 02:23:14;;;;;;;0.93;0.82;;;19.30;59.30;;;;;;4965028;29;20025;-68
2022/10/21 02:25:43;;;;;;;1.55;0.95;;;19.30;59.20;;;;;;4965032;29;20026;-67
2022/10/21 02:28:10;;;;;;;1.27;0.90;;;19.30;59.30;;;;;;4964999;29;20016;-67
2022/10/21 02:31:05;;;;;;;0.95;0.88;;;19.30;59.20;;;;;;4964974;29;20015;-68
2022/10/21 02:33:58;;;;;;;1.50;1.00;;;19.30;59.20;;;;;;4964763;28;20335;-67
2022/10/21 02:36:43;;;;;;;1.10;0.95;;;19.30;59.20;;;;;;4964811;29;20094;-67
2022/10/21 02:39:18;;;;;;;0.95;0.95;;;19.30;59.20;;;;;;4964928;29;20058;-67
2022/10/21 02:41:47;;;;;;;0.95;0.80;;;19.20;59.30;;;;;;4963972;28;20039;-67
2022/10/21 02:44:13;;;;;;;1.00;0.90;;;19.20;59.20;;;;;;4964810;28;20011;-67
2022/10/21 02:46:41;;;;;;;1.80;0.93;;;19.20;59.80;;;;;;4964797;29;20066;-67
2022/10/21 02:49:08;;;;;;;1.10;0.98;;;19.30;59.80;;;;;;4964782;29;20022;-67
2022/10/21 02:51:34;;;;;;;1.00;0.90;;;19.20;59.20;;;;;;4964822;28;20295;-68
2022/10/21 02:54:00;;;;;;;0.80;0.80;;;19.20;59.20;;;;;;4964757;29;20030;-67
2022/10/21 02:56:26;;;;;;;0.93;0.80;;;19.20;59.10;;;;;;4964749;29;20027;-68
2022/10/21 02:58:52;;;;;;;1.38;0.95;;;19.20;59.10;;;;;;4966531;28;20311;-68
2022/10/21 03:01:18;;;;;;;1.10;1.00;;;19.20;59.20;;;;;;4968157;29;20023;-67
2022/10/21 03:03:44;;;;;;;1.20;1.10;;;19.20;59.20;;;;;;4968197;28;20019;-67
2022/10/21 03:06:10;;;;;;;0.98;0.88;;;19.20;59.20;;;;;;4966928;29;20019;-67
2022/10/21 03:08:36;;;;;;;0.88;0.80;;;19.20;59.20;;;;;;4968102;29;20046;-68
2022/10/21 03:11:02;;;;;;;1.17;1.08;;;19.20;59.20;;;;;;4968056;28;20023;-67
2022/10/21 03:13:27;;;;;;;0.60;0.60;;;19.20;59.10;;;;;;4968018;29;20042;-68
2022/10/21 03:15:53;;;;;;;1.50;1.13;;;19.20;59.00;;;;;;4967992;29;20319;-67
2022/10/21 03:18:19;;;;;;;1.10;1.00;;;19.20;59.10;;;;;;4967894;29;20019;-67
2022/10/21 03:20:48;;;;;;;1.02;0.93;;;19.20;59.10;;;;;;4967851;28;20078;-68
2022/10/21 03:23:15;;;;;;;0.88;0.88;;;19.20;59.10;;;;;;4967850;29;20015;-67
2022/10/21 03:25:41;;;;;;;1.05;0.95;;;19.20;59.20;;;;;;4967791;29;20031;-67
2022/10/21 03:28:08;;;;;;;1.08;0.98;;;19.20;59.20;;;;;;4967819;28;20026;-67
2022/10/21 03:30:34;;;;;;;1.10;1.00;;;19.10;59.20;;;;;;4967706;28;20319;-68
2022/10/21 03:33:00;;;;;;;1.10;1.00;;;19.10;59.10;;;;;;4982622;28;20070;-66
2022/10/21 03:35:26;;;;;;;0.95;0.90;;;19.10;59.20;;;;;;4967619;29;20078;-68
2022/10/21 03:37:53;;;;;;;1.10;0.80;;;19.10;59.20;;;;;;4967423;29;20077;-67
2022/10/21 03:40:19;;;;;;;1.08;1.00;;;19.10;59.10;;;;;;4967469;29;20354;-68
2022/10/21 03:42:45;;;;;;;1.58;1.00;;;19.10;59.10;;;;;;4967458;29;20023;-68
2022/10/21 03:45:11;;;;;;;2.55;1.20;;;19.10;59.10;;;;;;4967452;29;20059;-67
2022/10/21 03:47:37;;;;;;;0.85;0.85;;;19.10;59.10;;;;;;4967401;29;20030;-67
2022/10/21 03:50:03;;;;;;;0.70;0.70;;;19.10;59.20;;;;;;4967359;28;20043;-67
2022/10/21 03:52:29;;;;;;;1.20;1.10;;;19.10;59.10;;;;;;4967352;28;20048;-68
2022/10/21 03:54:55;;;;;;;0.70;0.70;;;19.10;59.10;;;;;;4967294;28;20207;-68
2022/10/21 03:57:21;;;;;;;1.17;1.08;;;19.10;59.10;;;;;;4967237;29;20093;-67
2022/10/21 03:59:46;;;;;;;1.13;1.02;;;19.10;59.00;;;;;;4967177;29;20022;-67
2022/10/21 04:02:12;;;;;;;0.95;0.80;;;19.10;59.00;;;;;;4967043;29;20030;-68
2022/10/21 04:04:38;;;;;;;1.00;0.90;;;19.10;59.00;;;;;;4967080;29;20015;-68
2022/10/21 04:07:04;;;;;;;0.80;0.80;;;19.10;59.00;;;;;;4967069;29;20026;-68
2022/10/21 04:09:29;;;;;;;0.70;0.70;;;19.10;59.10;;;;;;4966145;28;20015;-68
2022/10/21 04:11:55;;;;;;;1.25;1.10;;;19.10;59.10;;;;;;4966829;29;20023;-67
2022/10/21 04:14:21;;;;;;;1.13;1.00;;;19.10;59.00;;;;;;4966939;29;20050;-67
2022/10/21 04:16:47;;;;;;;0.70;0.70;;;19.10;58.90;;;;;;4966876;29;20330;-67
2022/10/21 04:19:17;;;;;;;1.00;0.90;;;19.10;59.10;;;;;;4966806;29;20042;-67
2022/10/21 04:21:43;;;;;;;1.15;0.90;;;19.10;59.00;;;;;;4966715;29;20023;-67
2022/10/21 04:24:09;;;;;;;0.82;0.80;;;19.10;59.10;;;;;;4966744;28;20027;-67
2022/10/21 04:26:35;;;;;;;1.23;1.13;;;19.00;59.10;;;;;;4966669;29;20026;-67
2022/10/21 04:29:01;;;;;;;0.82;0.70;;;19.10;59.00;;;;;;4966660;28;20082;-68
2022/10/21 04:31:27;;;;;;;0.90;0.70;;;19.10;58.90;;;;;;4966587;29;20236;-67
2022/10/21 04:33:52;;;;;;;1.00;1.00;;;19.10;59.00;;;;;;4966518;29;20034;-68
2022/10/21 04:36:18;;;;;;;1.27;1.17;;;19.00;59.00;;;;;;4966514;29;20019;-67
2022/10/21 04:38:44;;;;;;;1.08;0.98;;;19.00;58.90;;;;;;4966320;29;20050;-66
2022/10/21 04:41:10;;;;;;;1.00;0.90;;;19.00;59.00;;;;;;4966308;29;20026;-67
2022/10/21 04:43:36;;;;;;;0.90;0.90;;;19.00;59.10;;;;;;4966368;29;20030;-68
2022/10/21 04:46:03;;;;;;;1.40;1.10;;;19.00;59.10;;;;;;4966309;28;20019;-67
2022/10/21 04:48:29;;;;;;;1.08;1.00;;;19.00;59.70;;;;;;4966294;28;20019;-68
2022/10/21 04:50:55;;;;;;;1.50;1.10;;;19.00;59.00;;;;;;4966228;29;20066;-67
2022/10/21 04:53:22;;;;;;;1.20;1.00;;;19.00;59.10;;;;;;4966184;29;20033;-67
2022/10/21 04:55:52;;;;;;;1.45;1.05;;;19.00;58.90;;;;;;4966163;29;20046;-68
2022/10/21 04:58:19;;;;;;;1.20;0.90;;;19.00;59.10;;;;;;4966123;29;20337;-67
2022/10/21 05:00:45;;;;;;;0.95;0.90;;;19.00;58.90;;;;;;4965985;29;20023;-67
2022/10/21 05:03:11;;;;;;;1.15;0.88;;;19.00;59.10;;;;;;4966047;28;20043;-67
2022/10/21 05:05:36;;;;;;;1.33;1.10;;;19.00;59.10;;;;;;4965938;29;20015;-68
2022/10/21 05:08:02;;;;;;;1.20;0.98;;;19.00;59.10;;;;;;4965928;29;20019;-67
2022/10/21 05:10:29;;;;;;;0.80;0.80;;;19.00;59.10;;;;;;4965908;29;20043;-67
2022/10/21 05:12:58;;;;;;;1.15;0.90;;;19.00;59.00;;;;;;4965864;29;20027;-66
2022/10/21 05:15:24;;;;;;;1.02;1.02;;;18.90;59.00;;;;;;4965854;29;20322;-67
2022/10/21 05:17:52;;;;;;;0.77;0.77;;;18.90;59.00;;;;;;4965769;29;20026;-67
2022/10/21 05:20:18;;;;;;;2.13;1.15;;;19.00;59.00;;;;;;4965702;29;20090;-67
2022/10/21 05:22:44;;;;;;;1.20;1.00;;;19.00;59.00;;;;;;4964614;28;20347;-68
2022/10/21 05:25:10;;;;;;;0.98;0.73;;;19.00;59.00;;;;;;4965682;29;20019;-68
2022/10/21 05:27:36;;;;;;;0.85;0.85;;;19.00;59.00;;;;;;4965627;29;20317;-68
2022/10/21 05:30:03;;;;;;;0.88;0.88;;;19.00;59.00;;;;;;4965618;29;20019;-68
2022/10/21 05:32:29;;;;;;;1.02;0.90;;;19.00;59.00;;;;;;4965577;29;20213;-67
2022/10/21 05:34:55;;;;;;;1.05;0.80;;;19.00;59.00;;;;;;4965562;28;20019;-68
2022/10/21 05:37:21;;;;;;;1.52;1.08;;;19.00;59.00;;;;;;4965294;29;20074;-67
2022/10/21 05:39:47;;;;;;;1.15;1.00;;;19.00;59.00;;;;;;4965501;28;20030;-67
2022/10/21 05:42:12;;;;;;;1.63;1.52;;;19.00;59.00;;;;;;4965365;29;20027;-67
2022/10/21 05:44:38;;;;;;;1.00;0.95;;;19.00;59.00;;;;;;4965396;28;20070;-67
2022/10/21 05:47:04;;;;;;;1.35;1.20;;;18.90;59.00;;;;;;4965390;29;20394;-68
2022/10/21 05:49:30;;;;;;;1.20;1.00;;;19.00;59.00;;;;;;4965330;29;20026;-67
2022/10/21 05:51:55;;;;;;;0.90;0.90;;;18.90;58.90;;;;;;4965297;29;20319;-68
2022/10/21 05:54:21;;;;;;;0.98;0.90;;;19.00;59.00;;;;;;4965307;29;20319;-68
2022/10/21 05:56:47;;;;;;;1.13;1.02;;;18.90;59.60;;;;;;4965283;29;20023;-67
2022/10/21 05:59:13;;;;;;;1.65;1.55;;;18.90;59.00;;;;;;4965232;29;20027;-67
2022/10/21 06:01:39;;;;;;;0.77;0.75;;;19.00;59.00;;;;;;4965191;29;20022;-68
2022/10/21 06:04:06;;;;;;;1.15;0.82;;;18.90;59.00;;;;;;4965229;28;20030;-67
2022/10/21 06:06:32;;;;;;;1.13;1.02;;;18.90;58.90;;;;;;4965188;29;20019;-68
2022/10/21 06:08:57;;;;;;;1.15;1.05;;;18.90;58.90;;;;;;4965160;29;20058;-67
2022/10/21 06:11:23;;;;;;;0.95;0.85;;;18.90;59.00;;;;;;4965179;28;20023;-68
2022/10/21 06:13:49;;;;;;;1.20;1.10;;;18.90;58.90;;;;;;4965145;29;20027;-68
2022/10/21 06:16:16;;;;;;;0.90;0.80;;;18.90;58.90;;;;;;4965092;29;20281;-68
2022/10/21 06:18:42;;;;;;;1.20;1.10;;;18.90;58.90;;;;;;4965055;29;20027;-68
2022/10/21 06:21:08;;;;;;;0.90;0.85;;;18.90;58.90;;;;;;4965009;29;20255;-68
2022/10/21 06:23:34;;;;;;;1.85;0.90;;;18.90;58.80;;;;;;4965037;29;20020;-68
2022/10/21 06:26:06;;;;;;;1.20;1.10;;;18.90;58.90;;;;;;4965009;29;20087;-67
2022/10/21 06:28:34;;;;;;;0.85;0.80;;;18.90;58.90;;;;;;4964961;29;20034;-67
2022/10/21 06:31:00;;;;;;;0.93;0.90;;;18.90;58.90;;;;;;4964989;29;20019;-67
2022/10/21 06:33:26;;;;;;;1.13;1.02;;;18.90;59.00;;;;;;4966225;28;20212;-68
2022/10/21 06:35:52;;;;;;;0.80;0.80;;;18.90;58.90;;;;;;4968729;29;20026;-68
2022/10/21 06:38:18;;;;;;;1.05;1.00;;;18.90;59.50;;;;;;4968471;29;20103;-66
2022/10/21 06:40:44;;;;;;;1.15;0.98;;;18.90;58.90;;;;;;4968580;28;20211;-67
2022/10/21 06:43:10;;;;;;;1.35;1.17;;;18.90;58.90;;;;;;4967433;29;20347;-68
2022/10/21 06:45:36;;;;;;;1.20;1.10;;;18.90;59.00;;;;;;4968540;28;20019;-67
2022/10/21 06:48:03;;;;;;;0.90;0.90;;;18.90;59.00;;;;;;4968471;29;20065;-67
2022/10/21 06:50:29;;;;;;;1.33;1.23;;;18.90;59.00;;;;;;4968475;28;20023;-67
2022/10/21 06:52:55;;;;;;;1.05;0.95;;;18.90;59.00;;;;;;4968379;29;20023;-67
2022/10/21 06:55:21;;;;;;;1.30;1.20;;;18.90;59.00;;;;;;4968357;29;20019;-68
2022/10/21 06:57:47;;;;;;;0.70;0.70;;;18.90;58.90;;;;;;4968313;29;20034;-67
2022/10/21 07:00:13;;;;;;;1.15;1.00;;;18.90;58.80;;;;;;4968186;29;20066;-67
2022/10/21 07:02:39;;;;;;;0.98;0.75;;;19.00;58.80;;;;;;4968233;29;20074;-68
2022/10/21 07:05:05;;;;;;;0.93;0.85;;;19.00;58.70;;;;;;4968201;29;20022;-67
2022/10/21 07:07:31;;;;;;;1.15;0.93;;;19.00;58.70;;;;;;4968177;29;20218;-67
2022/10/21 07:09:57;;;;;;;0.77;0.77;;;19.00;58.60;;;;;;4983145;28;20021;-67
2022/10/21 07:12:24;;;;;;;1.00;0.88;;;19.00;58.70;;;;;;4968053;29;20026;-68
2022/10/21 07:14:49;;;;;;;0.80;0.80;;;19.00;58.60;;;;;;4968053;29;20314;-68
2022/10/21 07:17:16;;;;;;;0.88;0.85;;;19.00;58.60;;;;;;4968033;28;20084;-67
2022/10/21 07:19:42;;;;;;;1.00;0.95;;;19.00;58.50;;;;;;4967976;28;20091;-68
2022/10/21 07:22:08;;;;;;;0.82;0.82;;;19.00;59.10;;;;;;4967831;29;20023;-67
2022/10/21 07:24:34;;;;;;;1.15;0.90;;;19.10;58.60;;;;;;4967849;29;20017;-68
2022/10/21 07:27:01;;;;;;;1.38;0.90;;;19.10;58.50;;;;;;4967860;28;20019;-67
2022/10/21 07:29:27;;;;;;;1.27;1.17;;;19.10;58.40;;;;;;4967782;29;20317;-67
2022/10/21 07:31:52;;;;;;;1.00;0.90;;;19.10;58.30;;;;;;4967702;29;20322;-68
2022/10/21 07:34:18;;;;;;;1.35;0.82;;;19.10;58.30;;;;;;4967707;29;20043;-67
2022/10/21 07:36:51;;;;;;;0.73;0.70;;;19.20;58.40;;;;;;4967481;29;20361;-68
2022/10/21 07:39:20;;;;;;;1.75;1.08;;;19.10;58.30;;;;;;4967657;29;20047;-67
2022/10/21 07:41:52;;;;;;;0.70;0.70;;;19.10;58.50;;;;;;4967545;28;20027;-67
2022/10/21 07:44:20;;;;;;;1.20;1.00;;;19.10;58.60;;;;;;4967399;28;20023;-68
2022/10/21 07:46:47;;;;;;;1.08;1.05;;;19.10;58.60;;;;;;4967462;29;20019;-67
2022/10/21 07:49:14;;;;;;;1.10;1.00;;;19.00;58.60;;;;;;4967394;29;20026;-68
2022/10/21 07:51:40;;;;;;;1.23;0.90;;;19.00;58.70;;;;;;4967380;29;20027;-67
2022/10/21 07:54:07;;;;;;;1.02;0.90;;;19.00;58.70;;;;;;4967326;29;20019;-67
2022/10/21 07:56:59;;;;;;;1.15;1.00;;;19.00;58.60;;;;;;4967265;29;20031;-67
2022/10/21 07:59:25;;;;;;;1.83;0.90;;;19.00;58.70;;;;;;4968186;28;20047;-67
2022/10/21 08:01:51;;;;;;;1.23;1.00;;;19.10;58.70;;;;;;4967116;29;20192;-67
2022/10/21 08:04:19;;;;;;;1.10;1.00;;;19.00;58.60;;;;;;4967404;28;20019;-68
2022/10/21 08:06:47;;;;;;;1.13;1.02;;;19.10;58.60;;;;;;4967110;29;20207;-67
2022/10/21 08:09:14;;;;;;;1.00;0.85;;;19.00;58.70;;;;;;4967054;29;20022;-67
2022/10/21 08:11:40;;;;;;;1.00;0.90;;;19.00;58.70;;;;;;4967005;29;20027;-67
2022/10/21 08:14:08;;;;;;;1.20;1.10;;;19.10;58.70;;;;;;4967010;28;20035;-69
2022/10/21 08:16:34;;;;;;;0.80;0.80;;;19.10;58.70;;;;;;4966918;29;20031;-67
2022/10/21 08:19:01;;;;;;;0.70;0.70;;;19.10;58.70;;;;;;4966885;28;20558;-67
2022/10/21 08:21:28;;;;;;;1.10;1.00;;;19.10;58.70;;;;;;4966746;29;20247;-68
2022/10/21 08:23:54;;;;;;;0.95;0.90;;;19.00;58.70;;;;;;4966754;28;20019;-67
2022/10/21 08:26:20;;;;;;;1.02;0.93;;;19.00;58.80;;;;;;4966721;29;20072;-68
2022/10/21 08:28:46;;;;;;;0.80;0.80;;;19.10;58.90;;;;;;4966714;28;20015;-68
2022/10/21 08:31:18;;;;;;;1.38;0.90;;;19.10;58.90;;;;;;4966670;28;20174;-68
2022/10/21 08:33:44;;;;;;;0.82;0.82;;;19.00;58.80;;;;;;4966578;29;20023;-68
2022/10/21 08:36:16;;;;;;;0.80;0.80;;;19.10;58.90;;;;;;4966538;28;20030;-69
2022/10/21 08:38:42;;;;;;;0.80;0.80;;;19.10;58.90;;;;;;4966376;29;20074;-67
2022/10/21 08:41:34;;;;;;;0.88;0.85;;;19.00;58.90;;;;;;4966390;29;20031;-67
2022/10/21 08:44:05;;;;;;;0.80;0.80;;;19.00;59.00;;;;;;4968062;28;20143;-67
2022/10/21 08:47:01;;;;;;;0.70;0.70;;;19.00;59.10;;;;;;4966413;29;20085;-67
2022/10/21 08:49:37;;;;;;;1.00;0.90;;;19.00;59.10;;;;;;4966314;29;20042;-68
2022/10/21 08:52:16;;;;;;;0.82;0.80;;;19.00;59.20;;;;;;4966289;29;20030;-68
2022/10/21 08:54:50;;;;;;;1.38;0.80;;;19.00;59.20;;;;;;4966233;29;20090;-67
2022/10/21 08:57:15;;;;;;;0.73;0.70;;;19.00;59.20;;;;;;4965729;28;20027;-68
2022/10/21 08:59:42;;;;;;;1.00;0.93;;;18.90;59.20;;;;;;4966152;29;20086;-67
2022/10/21 09:02:34;;;;;;;0.80;0.80;;;19.00;59.30;;;;;;4966025;29;20019;-68
2022/10/21 09:05:22;;;;;;;1.30;0.80;;;19.00;59.20;;;;;;4966058;28;20319;-67
2022/10/21 09:07:48;;;;;;;1.05;0.95;;;19.00;59.20;;;;;;4966303;29;20046;-67
2022/10/21 09:10:25;;;;;;;0.90;0.90;;;19.00;59.30;;;;;;4966007;28;20206;-67
2022/10/21 09:13:03;;;;;;;0.73;0.65;;;19.00;59.20;;;;;;4965943;29;20211;-68
2022/10/21 09:15:41;;;;;;;1.00;0.90;;;19.00;59.20;;;;;;4965935;29;20018;-67
2022/10/21 09:18:54;;;;;;;1.07;0.77;;;18.90;59.20;;;;;;4965874;29;20334;-67
2022/10/21 09:21:26;;;;;;;0.88;0.80;;;18.90;59.20;;;;;;4965722;29;20094;-67
2022/10/21 09:24:01;;;;;;;1.70;1.20;;;18.90;59.20;;;;;;4965733;29;20020;-68
2022/10/21 09:26:33;;;;;;;0.82;0.82;;;19.00;59.20;;;;;;4965685;29;20012;-67
2022/10/21 09:29:22;;;;;;;0.80;0.80;;;19.00;59.20;;;;;;4965710;29;20338;-68
2022/10/21 09:31:48;;;;;;;0.70;0.70;;;18.90;59.20;;;;;;4965454;28;20037;-67
2022/10/21 09:34:36;;;;;;;0.93;0.90;;;18.90;59.20;;;;;;4965617;28;20050;-67
2022/10/21 09:37:07;;;;;;;0.93;0.82;;;19.00;59.20;;;;;;4967337;28;20070;-67
2022/10/21 09:39:41;;;;;;;1.27;1.00;;;19.00;59.20;;;;;;4965524;28;20249;-68
2022/10/21 09:42:11;;;;;;;0.80;0.80;;;19.00;59.10;;;;;;4965438;28;20094;-67
2022/10/21 09:44:37;;;;;;;1.00;0.90;;;19.00;59.10;;;;;;4965426;29;20108;-68
2022/10/21 09:47:19;;;;;;;1.08;0.98;;;19.00;59.20;;;;;;4965391;29;20288;-68
2022/10/21 09:49:49;;;;;;;0.77;0.77;;;18.90;59.10;;;;;;4965376;29;20012;-67
2022/10/21 09:52:18;;;;;;;1.10;1.00;;;18.90;59.10;;;;;;4965361;29;20023;-67
2022/10/21 09:54:45;;;;;;;1.20;1.10;;;18.90;59.10;;;;;;4965321;29;20223;-67
2022/10/21 09:57:49;;;;;;;0.90;0.90;;;18.90;59.10;;;;;;4965290;29;20030;-68
2022/10/21 10:00:15;;;;;;;1.15;1.05;;;18.90;59.10;;;;;;4982537;28;20033;-67
2022/10/21 10:02:43;;;;;;;1.00;0.90;;;18.90;59.10;;;;;;4969075;28;20051;-67
2022/10/21 10:05:28;;;;;;;;;;;18.90;59.10;;;;;;4965650;29;20034;-68
2022/10/21 10:07:53;;;;;;;1.02;0.82;;;18.90;59.20;;;;;;4965698;28;20237;-68
2022/10/21 10:10:31;;;;;;;1.25;1.00;;;18.90;59.10;;;;;;4969215;29;20027;-68
2022/10/21 10:12:58;;;;;;;1.10;0.98;;;18.90;59.00;;;;;;4969175;29;20066;-68
2022/10/21 10:15:35;;;;;;;1.17;0.80;;;18.90;58.90;;;;;;4969118;29;20223;-68
2022/10/21 10:18:01;;;;;;;1.02;0.93;;;19.00;59.00;;;;;;4969102;29;20019;-68
2022/10/21 10:20:27;;;;;;;0.70;0.70;;;19.00;59.00;;;;;;4968935;29;20251;-68
2022/10/21 10:22:58;;;;;;;1.27;1.10;;;19.00;59.00;;;;;;4969004;28;20029;-68
2022/10/21 10:25:30;;;;;;;1.10;1.00;;;19.00;58.90;;;;;;4969007;28;20026;-68
2022/10/21 10:28:07;;;;;;;0.80;0.80;;;18.90;58.90;;;;;;4968959;28;20015;-67
2022/10/21 10:30:42;;;;;;;1.10;0.95;;;18.90;59.00;;;;;;4968864;29;20042;-68
2022/10/21 10:33:18;;;;;;;1.52;1.02;;;19.00;58.90;;;;;;4969068;28;20094;-68
2022/10/21 10:35:50;;;;;;;0.80;0.80;;;19.00;58.70;;;;;;4968819;28;20188;-68
2022/10/21 10:38:24;;;;;;;0.95;0.95;;;19.10;58.60;;;;;;4968542;28;20039;-69
2022/10/21 10:40:50;;;;;;;1.63;1.08;;;19.10;58.40;;;;;;4968658;29;20318;-68
2022/10/21 10:43:27;;;;;;;1.05;0.90;;;19.10;58.40;;;;;;4968636;29;20138;-67
2022/10/21 10:45:55;;;;;;;1.02;0.95;;;19.10;58.40;;;;;;4968623;29;20086;-67
2022/10/21 10:48:26;;;;;;;1.08;0.98;;;19.10;58.50;;;;;;4968217;29;20082;-66
2022/10/21 10:50:52;;;;;;;1.17;0.90;;;19.10;58.60;;;;;;4968546;29;20027;-68
2022/10/21 10:53:27;;;;;;;0.70;0.68;;;19.10;58.70;;;;;;4968479;28;20090;-68
2022/10/21 10:56:07;;;;;;;1.10;1.00;;;19.10;58.70;;;;;;4968496;28;20378;-68
2022/10/21 10:58:40;;;;;;;1.63;1.52;;;19.10;58.60;;;;;;4968417;29;20218;-67
2022/10/21 11:01:12;;;;;;;0.93;0.90;;;19.10;58.60;;;;;;4968292;29;20042;-67
2022/10/21 11:03:50;;;;;;;0.80;0.80;;;19.10;58.70;;;;;;4968308;29;20015;-67
2022/10/21 11:06:20;;;;;;;1.13;1.02;;;19.00;58.70;;;;;;4968264;29;20038;-67
2022/10/21 11:08:53;;;;;;;1.10;1.00;;;19.00;58.70;;;;;;4968176;28;20061;-66
2022/10/21 11:11:33;;;;;;;1.75;1.10;;;19.00;58.80;;;;;;4968158;29;20053;-68
2022/10/21 11:13:59;;;;;;;0.88;0.88;;;19.00;58.80;;;;;;4968120;29;20319;-67
2022/10/21 11:16:52;;;;;;;0.85;0.85;;;19.00;58.90;;;;;;4968038;29;20027;-67
2022/10/21 11:19:43;;;;;;;0.95;0.85;;;19.00;58.90;;;;;;4967538;28;20054;-67
2022/10/21 11:22:30;;;;;;;0.98;0.80;;;19.00;58.90;;;;;;4967875;29;20062;-67
2022/10/21 11:25:10;;;;;;;1.00;0.93;;;19.00;58.80;;;;;;4967923;29;20321;-67
2022/10/21 11:28:05;;;;;;;1.17;1.05;;;19.00;58.80;;;;;;4967886;29;20023;-67
2022/10/21 11:31:12;;;;;;;1.30;0.90;;;18.90;58.80;;;;;;4967818;29;20023;-68
2022/10/21 11:33:50;;;;;;;1.08;0.88;;;19.00;58.80;;;;;;4967790;29;20038;-68
2022/10/21 11:36:28;;;;;;;0.88;0.85;;;19.00;58.80;;;;;;4967670;29;20078;-67
2022/10/21 11:39:21;;;;;;;1.10;1.00;;;18.90;58.70;;;;;;4967524;29;20058;-68
2022/10/21 11:42:10;;;;;;;0.60;0.60;;;19.00;58.70;;;;;;4967539;28;20031;-67
2022/10/21 11:44:56;;;;;;;1.17;1.08;;;19.00;58.90;;;;;;4967552;29;20092;-68
2022/10/21 11:47:50;;;;;;;0.70;0.70;;;18.90;58.90;;;;;;4967514;29;20070;-67
2022/10/21 11:50:31;;;;;;;0.82;0.82;;;18.90;58.80;;;;;;4967440;29;20026;-67
2022/10/21 11:53:11;;;;;;;1.02;0.93;;;19.00;58.90;;;;;;4967637;29;20024;-67
2022/10/21 11:55:40;;;;;;;1.38;1.27;;;19.00;58.80;;;;;;4967366;28;20090;-68
2022/10/21 11:58:18;;;;;;;1.08;1.00;;;19.00;58.80;;;;;;4967292;29;20015;-67
2022/10/21 12:00:47;;;;;;;0.65;0.65;;;19.00;58.80;;;;;;4967223;29;20095;-68
2022/10/21 12:03:38;;;;;;;0.70;0.70;;;19.00;58.80;;;;;;4967184;29;20061;-67
2022/10/21 12:06:28;;;;;;;0.85;0.85;;;18.90;58.80;;;;;;4967138;28;20188;-67
2022/10/21 12:09:04;;;;;;;0.82;0.80;;;18.90;58.70;;;;;;4967152;28;20023;-68
2022/10/21 12:11:42;;;;;;;1.23;0.90;;;19.00;58.60;;;;;;4967073;29;20315;-67
2022/10/21 12:14:33;;;;;;;0.95;0.90;;;18.90;58.80;;;;;;4967083;28;20342;-67
2022/10/21 12:17:07;;;;;;;2.08;1.05;;;18.90;58.90;;;;;;4966971;29;20046;-67
2022/10/21 12:19:35;;;;;;;1.38;1.02;;;18.90;58.90;;;;;;4966924;29;20023;-67
2022/10/21 12:22:02;;;;;;;0.73;0.73;;;18.90;59.00;;;;;;4966785;29;20070;-67
2022/10/21 12:24:31;;;;;;;1.17;0.90;;;18.90;59.00;;;;;;4966812;29;20086;-67
2022/10/21 12:27:16;;;;;;;1.27;1.17;;;18.90;59.00;;;;;;4965620;29;20181;-67
2022/10/21 12:30:00;;;;;;;0.80;0.80;;;18.80;59.00;;;;;;4966737;29;20015;-68
2022/10/21 12:32:47;;;;;;;1.65;1.08;;;18.90;59.00;;;;;;4965964;29;20078;-67
2022/10/21 12:35:26;;;;;;;0.77;0.77;;;18.90;59.00;;;;;;4966643;29;20089;-67
2022/10/21 12:37:52;;;;;;;1.58;1.10;;;18.90;59.00;;;;;;4966360;29;20053;-67
2022/10/21 12:40:28;;;;;;;1.00;0.82;;;18.80;59.00;;;;;;4966450;29;20023;-67
2022/10/21 12:43:00;;;;;;;0.85;0.85;;;18.80;59.00;;;;;;4966498;28;20019;-67
2022/10/21 12:45:34;;;;;;;1.60;0.80;;;18.80;59.00;;;;;;4966466;28;20086;-68
2022/10/21 12:48:00;;;;;;;1.38;0.75;;;18.80;59.00;;;;;;4966428;29;20019;-67
2022/10/21 12:50:32;;;;;;;1.08;0.85;;;18.80;59.10;;;;;;4981368;28;20286;-67
2022/10/21 12:53:19;;;;;;;0.80;0.80;;;18.80;59.00;;;;;;4966293;28;20022;-68
2022/10/21 12:55:50;;;;;;;2.38;0.90;;;18.80;59.00;;;;;;4966226;29;20015;-67
2022/10/21 12:58:24;;;;;;;1.00;0.90;;;18.80;59.00;;;;;;4966160;29;20026;-67
2022/10/21 13:00:56;;;;;;;0.93;0.90;;;18.80;59.00;;;;;;4966094;28;20038;-67
2022/10/21 13:03:45;;;;;;;0.73;0.60;;;18.80;59.10;;;;;;4966116;29;20203;-68
2022/10/21 13:06:11;;;;;;;0.93;0.90;;;18.80;59.00;;;;;;4965958;28;20251;-67
2022/10/21 13:08:52;;;;;;;0.77;0.77;;;18.80;58.90;;;;;;4965990;29;20204;-67